Terminal Aerodrome Forecast
Issued by NWS

Home | Current Version | Previous Version | Text Only | Print | Product List | Glossary On
Versions: 1 2 3 4 5 6 7 8 9 10 11 12 13 14 15 16 17 18 19 20 21 22 23 24 25 26 27 28 29 30 31
305
FTUS41 KCAR 091125
TAFFVE
TAF
KFVE 091125Z 0912/1012 01009KT 1SM -SN BR OVC012
     FM092000 02009KT 1 1/2SM -SN OVC012
     FM100000 03005KT 5SM -SHSN OVC010
     FM100200 02004KT 5SM -SHSN BR OVC007
     FM100800 36004KT P6SM OVC012=

USA.gov is the U.S. government's official web portal to all federal, state and local government web resources and services.